sensor_id;sensor_type;location;lat;lon;timestamp;temperature;humidity
210;DHT22;90;48.810;9.120;2023-09-19T00:00:31;19.00;82.00
210;DHT22;90;48.810;9.120;2023-09-19T00:02:59;19.00;82.30
210;DHT22;90;48.810;9.120;2023-09-19T00:05:28;18.90;82.70
210;DHT22;90;48.810;9.120;2023-09-19T00:07:57;18.90;82.60
210;DHT22;90;48.810;9.120;2023-09-19T00:10:25;18.80;82.70
210;DHT22;90;48.810;9.120;2023-09-19T00:12:52;18.80;82.90
210;DHT22;90;48.810;9.120;2023-09-19T00:15:21;18.80;82.80
210;DHT22;90;48.810;9.120;2023-09-19T00:17:48;18.80;82.90
210;DHT22;90;48.810;9.120;2023-09-19T00:20:18;18.70;83.00
210;DHT22;90;48.810;9.120;2023-09-19T00:22:48;18.70;83.30
210;DHT22;90;48.810;9.120;2023-09-19T00:25:16;18.60;83.60
210;DHT22;90;48.810;9.120;2023-09-19T00:27:42;18.70;83.30
210;DHT22;90;48.810;9.120;2023-09-19T00:30:11;18.80;82.90
210;DHT22;90;48.810;9.120;2023-09-19T00:32:42;18.90;82.60
210;DHT22;90;48.810;9.120;2023-09-19T00:35:09;18.90;82.50
210;DHT22;90;48.810;9.120;2023-09-19T00:37:37;18.80;82.40
210;DHT22;90;48.810;9.120;2023-09-19T00:40:07;18.80;82.40
210;DHT22;90;48.810;9.120;2023-09-19T00:42:38;18.90;82.20
210;DHT22;90;48.810;9.120;2023-09-19T00:45:06;18.90;81.90
210;DHT22;90;48.810;9.120;2023-09-19T00:47:35;18.90;81.90
210;DHT22;90;48.810;9.120;2023-09-19T00:50:03;18.90;81.80
210;DHT22;90;48.810;9.120;2023-09-19T00:52:33;18.90;81.90
210;DHT22;90;48.810;9.120;2023-09-19T00:55:02;18.90;81.90
210;DHT22;90;48.810;9.120;2023-09-19T00:57:30;18.90;82.10
210;DHT22;90;48.810;9.120;2023-09-19T01:00:00;18.90;82.10
210;DHT22;90;48.810;9.120;2023-09-19T01:02:31;18.90;82.00
210;DHT22;90;48.810;9.120;2023-09-19T01:04:58;18.80;82.20
210;DHT22;90;48.810;9.120;2023-09-19T01:07:24;18.80;82.40
210;DHT22;90;48.810;9.120;2023-09-19T01:09:51;18.90;82.10
210;DHT22;90;48.810;9.120;2023-09-19T01:12:26;18.90;82.20
210;DHT22;90;48.810;9.120;2023-09-19T01:15:01;18.80;82.20
210;DHT22;90;48.810;9.120;2023-09-19T01:17:34;18.80;82.30
210;DHT22;90;48.810;9.120;2023-09-19T01:20:24;18.70;82.50
210;DHT22;90;48.810;9.120;2023-09-19T01:23:00;18.70;82.40
210;DHT22;90;48.810;9.120;2023-09-19T01:28:51;18.80;82.20
210;DHT22;90;48.810;9.120;2023-09-19T01:31:22;18.90;82.10
210;DHT22;90;48.810;9.120;2023-09-19T01:33:58;18.90;82.00
210;DHT22;90;48.810;9.120;2023-09-19T01:36:30;18.90;82.00
210;DHT22;90;48.810;9.120;2023-09-19T01:39:00;18.80;82.00
210;DHT22;90;48.810;9.120;2023-09-19T01:42:01;18.80;81.80
210;DHT22;90;48.810;9.120;2023-09-19T01:44:38;18.80;82.20
210;DHT22;90;48.810;9.120;2023-09-19T01:47:17;18.80;81.90
210;DHT22;90;48.810;9.120;2023-09-19T01:49:53;18.80;82.10
210;DHT22;90;48.810;9.120;2023-09-19T01:52:24;18.80;82.00
210;DHT22;90;48.810;9.120;2023-09-19T01:54:58;18.70;81.90
210;DHT22;90;48.810;9.120;2023-09-19T01:57:34;18.70;81.70
210;DHT22;90;48.810;9.120;2023-09-19T02:00:06;18.70;82.00
210;DHT22;90;48.810;9.120;2023-09-19T02:02:36;18.70;81.60
210;DHT22;90;48.810;9.120;2023-09-19T02:05:04;18.70;81.80
210;DHT22;90;48.810;9.120;2023-09-19T02:07:32;18.70;81.90
210;DHT22;90;48.810;9.120;2023-09-19T02:09:59;18.60;82.00
210;DHT22;90;48.810;9.120;2023-09-19T02:12:25;18.60;82.10
210;DHT22;90;48.810;9.120;2023-09-19T02:14:52;18.60;82.10
210;DHT22;90;48.810;9.120;2023-09-19T02:17:19;18.60;81.80
210;DHT22;90;48.810;9.120;2023-09-19T02:19:47;18.50;82.10
210;DHT22;90;48.810;9.120;2023-09-19T02:22:14;18.50;82.00
210;DHT22;90;48.810;9.120;2023-09-19T02:24:41;18.50;81.90
210;DHT22;90;48.810;9.120;2023-09-19T02:27:08;18.50;82.00
210;DHT22;90;48.810;9.120;2023-09-19T02:29:38;18.50;81.90
210;DHT22;90;48.810;9.120;2023-09-19T02:32:04;18.50;81.60
210;DHT22;90;48.810;9.120;2023-09-19T02:34:31;18.40;82.00
210;DHT22;90;48.810;9.120;2023-09-19T02:37:03;18.30;81.90
210;DHT22;90;48.810;9.120;2023-09-19T02:39:31;18.40;81.80
210;DHT22;90;48.810;9.120;2023-09-19T02:41:58;18.40;81.70
210;DHT22;90;48.810;9.120;2023-09-19T02:44:25;18.40;81.80
210;DHT22;90;48.810;9.120;2023-09-19T02:46:53;18.40;81.80
210;DHT22;90;48.810;9.120;2023-09-19T02:49:19;18.40;81.80
210;DHT22;90;48.810;9.120;2023-09-19T02:51:46;18.40;81.90
210;DHT22;90;48.810;9.120;2023-09-19T02:54:15;18.40;82.00
210;DHT22;90;48.810;9.120;2023-09-19T02:56:43;18.40;82.30
210;DHT22;90;48.810;9.120;2023-09-19T02:59:10;18.40;82.30
210;DHT22;90;48.810;9.120;2023-09-19T03:01:36;18.50;82.00
210;DHT22;90;48.810;9.120;2023-09-19T03:04:04;18.50;81.80
210;DHT22;90;48.810;9.120;2023-09-19T03:06:32;18.50;81.80
210;DHT22;90;48.810;9.120;2023-09-19T03:08:59;18.50;81.80
210;DHT22;90;48.810;9.120;2023-09-19T03:11:29;18.50;81.70
210;DHT22;90;48.810;9.120;2023-09-19T03:13:57;18.50;81.60
210;DHT22;90;48.810;9.120;2023-09-19T03:16:23;18.50;81.60
210;DHT22;90;48.810;9.120;2023-09-19T03:18:51;18.50;82.10
210;DHT22;90;48.810;9.120;2023-09-19T03:21:17;18.50;82.10
210;DHT22;90;48.810;9.120;2023-09-19T03:23:45;18.50;81.90
210;DHT22;90;48.810;9.120;2023-09-19T03:26:12;18.50;81.90
210;DHT22;90;48.810;9.120;2023-09-19T03:28:41;18.50;81.90
210;DHT22;90;48.810;9.120;2023-09-19T03:31:08;18.50;82.10
210;DHT22;90;48.810;9.120;2023-09-19T03:33:35;18.60;81.90
210;DHT22;90;48.810;9.120;2023-09-19T03:36:03;18.50;81.90
210;DHT22;90;48.810;9.120;2023-09-19T03:38:31;18.50;82.10
210;DHT22;90;48.810;9.120;2023-09-19T03:40:58;18.50;82.10
210;DHT22;90;48.810;9.120;2023-09-19T03:43:25;18.50;82.10
210;DHT22;90;48.810;9.120;2023-09-19T03:45:53;18.60;82.00
210;DHT22;90;48.810;9.120;2023-09-19T03:48:20;18.60;81.70
210;DHT22;90;48.810;9.120;2023-09-19T03:50:48;18.60;81.60
210;DHT22;90;48.810;9.120;2023-09-19T03:53:15;18.70;81.40
210;DHT22;90;48.810;9.120;2023-09-19T03:55:44;18.70;81.50
210;DHT22;90;48.810;9.120;2023-09-19T03:58:11;18.70;81.60
210;DHT22;90;48.810;9.120;2023-09-19T04:00:38;18.70;81.60
210;DHT22;90;48.810;9.120;2023-09-19T04:03:06;18.60;82.10
210;DHT22;90;48.810;9.120;2023-09-19T04:05:33;18.60;82.70
210;DHT22;90;48.810;9.120;2023-09-19T04:08:00;18.50;83.40
210;DHT22;90;48.810;9.120;2023-09-19T04:10:27;18.50;83.50
210;DHT22;90;48.810;9.120;2023-09-19T04:12:54;18.60;83.50
210;DHT22;90;48.810;9.120;2023-09-19T04:15:21;18.70;83.60
210;DHT22;90;48.810;9.120;2023-09-19T04:17:48;18.60;83.80
210;DHT22;90;48.810;9.120;2023-09-19T04:20:17;18.60;83.90
210;DHT22;90;48.810;9.120;2023-09-19T04:22:45;18.70;83.90
210;DHT22;90;48.810;9.120;2023-09-19T04:25:11;18.70;84.20
210;DHT22;90;48.810;9.120;2023-09-19T04:27:38;18.70;84.30
210;DHT22;90;48.810;9.120;2023-09-19T04:30:06;18.70;84.60
210;DHT22;90;48.810;9.120;2023-09-19T04:32:37;18.60;85.20
210;DHT22;90;48.810;9.120;2023-09-19T04:35:05;18.60;85.20
210;DHT22;90;48.810;9.120;2023-09-19T04:37:38;18.60;85.50
210;DHT22;90;48.810;9.120;2023-09-19T04:40:07;18.50;85.80
210;DHT22;90;48.810;9.120;2023-09-19T04:42:38;18.60;85.60
210;DHT22;90;48.810;9.120;2023-09-19T04:45:06;18.60;85.80
210;DHT22;90;48.810;9.120;2023-09-19T04:47:34;18.50;86.50
210;DHT22;90;48.810;9.120;2023-09-19T04:50:00;18.50;86.80
210;DHT22;90;48.810;9.120;2023-09-19T04:52:30;18.50;86.60
210;DHT22;90;48.810;9.120;2023-09-19T04:54:58;18.60;85.70
210;DHT22;90;48.810;9.120;2023-09-19T04:57:25;18.60;86.00
210;DHT22;90;48.810;9.120;2023-09-19T04:59:53;18.60;86.10
210;DHT22;90;48.810;9.120;2023-09-19T05:02:20;18.50;87.10
210;DHT22;90;48.810;9.120;2023-09-19T05:04:47;18.60;87.30
210;DHT22;90;48.810;9.120;2023-09-19T05:07:14;18.50;87.40
210;DHT22;90;48.810;9.120;2023-09-19T05:09:42;18.50;87.40
210;DHT22;90;48.810;9.120;2023-09-19T05:12:10;18.50;87.10
210;DHT22;90;48.810;9.120;2023-09-19T05:14:37;18.50;87.30
210;DHT22;90;48.810;9.120;2023-09-19T05:17:05;18.50;87.50
210;DHT22;90;48.810;9.120;2023-09-19T05:19:33;18.50;87.60
210;DHT22;90;48.810;9.120;2023-09-19T05:22:00;18.50;87.90
210;DHT22;90;48.810;9.120;2023-09-19T05:24:29;18.30;88.50
210;DHT22;90;48.810;9.120;2023-09-19T05:26:56;18.30;88.60
210;DHT22;90;48.810;9.120;2023-09-19T05:29:25;18.20;89.20
210;DHT22;90;48.810;9.120;2023-09-19T05:31:51;18.10;89.70
210;DHT22;90;48.810;9.120;2023-09-19T05:34:20;18.00;90.40
210;DHT22;90;48.810;9.120;2023-09-19T05:36:46;17.90;91.10
210;DHT22;90;48.810;9.120;2023-09-19T05:39:14;17.90;91.60
210;DHT22;90;48.810;9.120;2023-09-19T05:41:41;17.80;90.90
210;DHT22;90;48.810;9.120;2023-09-19T05:44:08;17.70;90.00
210;DHT22;90;48.810;9.120;2023-09-19T05:46:36;17.70;90.10
210;DHT22;90;48.810;9.120;2023-09-19T05:49:02;17.60;90.90
210;DHT22;90;48.810;9.120;2023-09-19T05:51:29;17.60;91.10
210;DHT22;90;48.810;9.120;2023-09-19T05:53:56;17.60;89.70
210;DHT22;90;48.810;9.120;2023-09-19T05:56:23;17.60;89.50
210;DHT22;90;48.810;9.120;2023-09-19T05:58:49;17.50;90.10
210;DHT22;90;48.810;9.120;2023-09-19T06:01:18;17.40;90.60
210;DHT22;90;48.810;9.120;2023-09-19T06:03:46;17.40;88.90
210;DHT22;90;48.810;9.120;2023-09-19T06:06:13;17.10;88.00
210;DHT22;90;48.810;9.120;2023-09-19T06:08:40;17.00;89.70
210;DHT22;90;48.810;9.120;2023-09-19T06:11:09;16.90;90.30
210;DHT22;90;48.810;9.120;2023-09-19T06:13:36;16.80;90.70
210;DHT22;90;48.810;9.120;2023-09-19T06:16:04;16.80;91.10
210;DHT22;90;48.810;9.120;2023-09-19T06:18:31;16.70;91.60
210;DHT22;90;48.810;9.120;2023-09-19T06:21:00;16.80;92.00
210;DHT22;90;48.810;9.120;2023-09-19T06:23:30;16.80;92.00
210;DHT22;90;48.810;9.120;2023-09-19T06:25:57;16.80;91.30
210;DHT22;90;48.810;9.120;2023-09-19T06:28:24;16.80;91.80
210;DHT22;90;48.810;9.120;2023-09-19T06:30:53;16.90;91.30
210;DHT22;90;48.810;9.120;2023-09-19T06:33:20;16.90;91.40
210;DHT22;90;48.810;9.120;2023-09-19T06:35:47;16.90;91.60
210;DHT22;90;48.810;9.120;2023-09-19T06:38:15;17.10;90.20
210;DHT22;90;48.810;9.120;2023-09-19T06:40:43;17.10;90.20
210;DHT22;90;48.810;9.120;2023-09-19T06:43:10;17.10;90.00
210;DHT22;90;48.810;9.120;2023-09-19T06:45:37;17.20;89.90
210;DHT22;90;48.810;9.120;2023-09-19T06:48:04;17.20;90.00
210;DHT22;90;48.810;9.120;2023-09-19T06:50:32;17.20;89.60
210;DHT22;90;48.810;9.120;2023-09-19T06:52:59;17.20;89.30
210;DHT22;90;48.810;9.120;2023-09-19T06:55:28;17.30;88.70
210;DHT22;90;48.810;9.120;2023-09-19T06:57:57;17.30;88.00
210;DHT22;90;48.810;9.120;2023-09-19T07:00:25;17.30;87.90
210;DHT22;90;48.810;9.120;2023-09-19T07:02:57;17.50;87.60
210;DHT22;90;48.810;9.120;2023-09-19T07:05:26;17.50;87.70
210;DHT22;90;48.810;9.120;2023-09-19T07:07:54;17.50;87.80
210;DHT22;90;48.810;9.120;2023-09-19T07:10:21;17.50;87.40
210;DHT22;90;48.810;9.120;2023-09-19T07:12:55;17.70;87.50
210;DHT22;90;48.810;9.120;2023-09-19T07:15:22;17.70;87.50
210;DHT22;90;48.810;9.120;2023-09-19T07:17:50;17.70;85.80
210;DHT22;90;48.810;9.120;2023-09-19T07:20:18;17.60;86.30
210;DHT22;90;48.810;9.120;2023-09-19T07:22:45;17.70;86.80
210;DHT22;90;48.810;9.120;2023-09-19T07:25:12;17.70;86.60
210;DHT22;90;48.810;9.120;2023-09-19T07:27:40;17.70;86.60
210;DHT22;90;48.810;9.120;2023-09-19T07:30:09;17.70;87.00
210;DHT22;90;48.810;9.120;2023-09-19T07:32:37;17.70;86.50
210;DHT22;90;48.810;9.120;2023-09-19T07:35:04;17.70;85.70
210;DHT22;90;48.810;9.120;2023-09-19T07:37:32;17.70;86.40
210;DHT22;90;48.810;9.120;2023-09-19T07:39:59;17.70;86.20
210;DHT22;90;48.810;9.120;2023-09-19T07:42:26;17.80;85.90
210;DHT22;90;48.810;9.120;2023-09-19T07:44:53;17.90;86.20
210;DHT22;90;48.810;9.120;2023-09-19T07:47:21;17.80;86.40
210;DHT22;90;48.810;9.120;2023-09-19T07:49:47;17.90;86.30
210;DHT22;90;48.810;9.120;2023-09-19T07:52:14;17.90;86.00
210;DHT22;90;48.810;9.120;2023-09-19T07:54:42;17.90;86.10
210;DHT22;90;48.810;9.120;2023-09-19T07:57:09;18.00;85.50
210;DHT22;90;48.810;9.120;2023-09-19T07:59:37;18.10;85.00
210;DHT22;90;48.810;9.120;2023-09-19T08:02:04;17.90;86.00
210;DHT22;90;48.810;9.120;2023-09-19T08:04:35;18.00;84.70
210;DHT22;90;48.810;9.120;2023-09-19T08:07:02;18.00;86.10
210;DHT22;90;48.810;9.120;2023-09-19T08:09:29;18.20;84.50
210;DHT22;90;48.810;9.120;2023-09-19T08:11:58;18.20;83.90
210;DHT22;90;48.810;9.120;2023-09-19T08:14:28;18.30;83.60
210;DHT22;90;48.810;9.120;2023-09-19T08:16:56;18.40;84.30
210;DHT22;90;48.810;9.120;2023-09-19T08:19:23;18.50;84.60
210;DHT22;90;48.810;9.120;2023-09-19T08:21:55;18.60;83.30
210;DHT22;90;48.810;9.120;2023-09-19T08:24:24;18.60;81.70
210;DHT22;90;48.810;9.120;2023-09-19T08:26:54;18.60;82.50
210;DHT22;90;48.810;9.120;2023-09-19T08:29:21;18.70;81.50
210;DHT22;90;48.810;9.120;2023-09-19T08:31:53;18.70;80.50
210;DHT22;90;48.810;9.120;2023-09-19T08:34:20;18.80;80.90
210;DHT22;90;48.810;9.120;2023-09-19T08:36:47;18.80;80.50
210;DHT22;90;48.810;9.120;2023-09-19T08:39:15;18.90;80.50
210;DHT22;90;48.810;9.120;2023-09-19T08:41:42;18.90;80.00
210;DHT22;90;48.810;9.120;2023-09-19T08:44:09;19.00;79.90
210;DHT22;90;48.810;9.120;2023-09-19T08:46:37;19.10;78.90
210;DHT22;90;48.810;9.120;2023-09-19T08:49:18;19.20;79.20
210;DHT22;90;48.810;9.120;2023-09-19T08:51:49;19.30;78.90
210;DHT22;90;48.810;9.120;2023-09-19T08:54:25;19.30;77.30
210;DHT22;90;48.810;9.120;2023-09-19T08:56:53;19.30;77.20
210;DHT22;90;48.810;9.120;2023-09-19T08:59:22;19.40;75.50
210;DHT22;90;48.810;9.120;2023-09-19T09:01:51;19.50;74.50
210;DHT22;90;48.810;9.120;2023-09-19T09:04:19;19.60;72.10
210;DHT22;90;48.810;9.120;2023-09-19T09:06:47;19.60;72.90
210;DHT22;90;48.810;9.120;2023-09-19T09:09:19;19.70;73.20
210;DHT22;90;48.810;9.120;2023-09-19T09:11:48;19.80;72.70
210;DHT22;90;48.810;9.120;2023-09-19T09:14:17;19.90;71.20
210;DHT22;90;48.810;9.120;2023-09-19T09:16:45;19.80;70.90
210;DHT22;90;48.810;9.120;2023-09-19T09:19:13;19.80;69.90
210;DHT22;90;48.810;9.120;2023-09-19T09:21:40;19.70;69.40
210;DHT22;90;48.810;9.120;2023-09-19T09:24:37;19.60;70.40
210;DHT22;90;48.810;9.120;2023-09-19T09:27:07;19.70;68.80
210;DHT22;90;48.810;9.120;2023-09-19T09:29:43;19.80;70.30
210;DHT22;90;48.810;9.120;2023-09-19T09:32:17;20.00;69.30
210;DHT22;90;48.810;9.120;2023-09-19T09:34:45;20.10;69.50
210;DHT22;90;48.810;9.120;2023-09-19T09:37:14;20.20;69.40
210;DHT22;90;48.810;9.120;2023-09-19T09:39:49;20.30;67.90
210;DHT22;90;48.810;9.120;2023-09-19T09:42:29;20.10;66.20
210;DHT22;90;48.810;9.120;2023-09-19T09:45:12;19.90;67.10
210;DHT22;90;48.810;9.120;2023-09-19T09:47:44;20.00;66.50
210;DHT22;90;48.810;9.120;2023-09-19T09:50:25;20.00;67.10
210;DHT22;90;48.810;9.120;2023-09-19T09:52:55;20.00;67.20
210;DHT22;90;48.810;9.120;2023-09-19T09:55:28;20.00;67.30
210;DHT22;90;48.810;9.120;2023-09-19T09:58:18;20.10;67.30
210;DHT22;90;48.810;9.120;2023-09-19T10:00:55;20.10;67.30
210;DHT22;90;48.810;9.120;2023-09-19T10:03:32;19.90;67.10
210;DHT22;90;48.810;9.120;2023-09-19T10:06:00;19.90;66.90
210;DHT22;90;48.810;9.120;2023-09-19T10:08:36;20.00;67.90
210;DHT22;90;48.810;9.120;2023-09-19T10:11:15;20.00;66.50
210;DHT22;90;48.810;9.120;2023-09-19T10:13:45;19.90;66.60
210;DHT22;90;48.810;9.120;2023-09-19T10:16:13;20.00;66.50
210;DHT22;90;48.810;9.120;2023-09-19T10:18:45;20.00;66.10
210;DHT22;90;48.810;9.120;2023-09-19T10:21:14;20.20;67.20
210;DHT22;90;48.810;9.120;2023-09-19T10:23:48;20.20;64.80
210;DHT22;90;48.810;9.120;2023-09-19T10:26:18;20.40;64.30
210;DHT22;90;48.810;9.120;2023-09-19T10:28:50;20.50;63.90
210;DHT22;90;48.810;9.120;2023-09-19T10:31:19;20.60;64.10
210;DHT22;90;48.810;9.120;2023-09-19T10:33:47;20.60;62.80
210;DHT22;90;48.810;9.120;2023-09-19T10:36:16;20.70;63.60
210;DHT22;90;48.810;9.120;2023-09-19T10:38:45;20.80;62.10
210;DHT22;90;48.810;9.120;2023-09-19T10:41:16;20.90;61.40
210;DHT22;90;48.810;9.120;2023-09-19T10:43:46;20.80;60.50
210;DHT22;90;48.810;9.120;2023-09-19T10:46:16;20.90;60.60
210;DHT22;90;48.810;9.120;2023-09-19T10:48:43;21.00;60.80
210;DHT22;90;48.810;9.120;2023-09-19T10:51:16;21.20;61.60
210;DHT22;90;48.810;9.120;2023-09-19T10:53:48;21.30;60.80
210;DHT22;90;48.810;9.120;2023-09-19T10:56:21;21.50;58.30
210;DHT22;90;48.810;9.120;2023-09-19T10:58:48;21.30;59.10
210;DHT22;90;48.810;9.120;2023-09-19T11:01:17;21.30;59.10
210;DHT22;90;48.810;9.120;2023-09-19T11:03:44;21.30;58.40
210;DHT22;90;48.810;9.120;2023-09-19T11:06:12;21.30;58.50
210;DHT22;90;48.810;9.120;2023-09-19T11:08:59;21.30;59.20
210;DHT22;90;48.810;9.120;2023-09-19T11:11:49;21.40;59.00
210;DHT22;90;48.810;9.120;2023-09-19T11:14:42;21.40;57.90
210;DHT22;90;48.810;9.120;2023-09-19T11:17:41;21.70;59.00
210;DHT22;90;48.810;9.120;2023-09-19T11:20:30;21.80;56.30
210;DHT22;90;48.810;9.120;2023-09-19T11:23:22;21.70;56.00
210;DHT22;90;48.810;9.120;2023-09-19T11:25:50;21.70;55.10
210;DHT22;90;48.810;9.120;2023-09-19T11:28:31;21.80;55.20
210;DHT22;90;48.810;9.120;2023-09-19T11:30:58;21.90;54.70
210;DHT22;90;48.810;9.120;2023-09-19T11:33:28;22.00;54.70
210;DHT22;90;48.810;9.120;2023-09-19T11:36:04;22.10;53.90
210;DHT22;90;48.810;9.120;2023-09-19T11:38:58;22.10;53.20
210;DHT22;90;48.810;9.120;2023-09-19T11:41:40;22.00;54.50
210;DHT22;90;48.810;9.120;2023-09-19T11:44:32;22.00;52.80
210;DHT22;90;48.810;9.120;2023-09-19T11:47:00;22.00;53.40
210;DHT22;90;48.810;9.120;2023-09-19T11:49:31;22.00;54.30
210;DHT22;90;48.810;9.120;2023-09-19T11:51:59;22.00;53.60
210;DHT22;90;48.810;9.120;2023-09-19T11:54:30;22.10;54.10
210;DHT22;90;48.810;9.120;2023-09-19T11:56:59;22.20;53.80
210;DHT22;90;48.810;9.120;2023-09-19T11:59:27;22.10;52.20
210;DHT22;90;48.810;9.120;2023-09-19T12:01:56;22.10;53.70
210;DHT22;90;48.810;9.120;2023-09-19T12:04:38;22.20;53.50
210;DHT22;90;48.810;9.120;2023-09-19T12:07:07;22.30;52.90
210;DHT22;90;48.810;9.120;2023-09-19T12:09:39;22.40;53.30
210;DHT22;90;48.810;9.120;2023-09-19T12:12:06;22.60;53.10
210;DHT22;90;48.810;9.120;2023-09-19T12:14:33;22.70;52.90
210;DHT22;90;48.810;9.120;2023-09-19T12:17:00;22.70;52.90
210;DHT22;90;48.810;9.120;2023-09-19T12:19:29;22.80;52.80
210;DHT22;90;48.810;9.120;2023-09-19T12:22:00;23.00;53.70
210;DHT22;90;48.810;9.120;2023-09-19T12:24:31;23.00;53.80
210;DHT22;90;48.810;9.120;2023-09-19T12:27:02;23.00;53.20
210;DHT22;90;48.810;9.120;2023-09-19T12:29:31;23.00;53.70
210;DHT22;90;48.810;9.120;2023-09-19T12:32:00;23.10;54.00
210;DHT22;90;48.810;9.120;2023-09-19T12:34:30;23.20;53.10
210;DHT22;90;48.810;9.120;2023-09-19T12:37:09;23.10;53.40
210;DHT22;90;48.810;9.120;2023-09-19T12:39:42;23.10;53.50
210;DHT22;90;48.810;9.120;2023-09-19T12:42:10;23.20;53.50
210;DHT22;90;48.810;9.120;2023-09-19T12:44:41;23.20;53.00
210;DHT22;90;48.810;9.120;2023-09-19T12:47:12;23.00;52.80
210;DHT22;90;48.810;9.120;2023-09-19T12:50:09;22.80;54.00
210;DHT22;90;48.810;9.120;2023-09-19T12:52:46;22.60;54.20
210;DHT22;90;48.810;9.120;2023-09-19T12:55:21;22.50;53.40
210;DHT22;90;48.810;9.120;2023-09-19T12:57:59;22.30;53.70
210;DHT22;90;48.810;9.120;2023-09-19T13:00:34;22.10;54.50
210;DHT22;90;48.810;9.120;2023-09-19T13:03:25;22.00;55.60
210;DHT22;90;48.810;9.120;2023-09-19T13:05:54;22.00;55.70
210;DHT22;90;48.810;9.120;2023-09-19T13:08:24;22.00;55.90
210;DHT22;90;48.810;9.120;2023-09-19T13:11:07;22.10;54.60
210;DHT22;90;48.810;9.120;2023-09-19T13:13:37;22.10;53.70
210;DHT22;90;48.810;9.120;2023-09-19T13:16:04;22.20;54.20
210;DHT22;90;48.810;9.120;2023-09-19T13:18:47;22.40;53.90
210;DHT22;90;48.810;9.120;2023-09-19T13:21:17;22.60;54.50
210;DHT22;90;48.810;9.120;2023-09-19T13:23:55;22.90;57.80
210;DHT22;90;48.810;9.120;2023-09-19T13:26:25;23.00;58.40
210;DHT22;90;48.810;9.120;2023-09-19T13:28:51;23.00;55.60
210;DHT22;90;48.810;9.120;2023-09-19T13:31:18;22.90;57.30
210;DHT22;90;48.810;9.120;2023-09-19T13:33:45;22.70;55.10
210;DHT22;90;48.810;9.120;2023-09-19T13:36:12;22.70;55.60
210;DHT22;90;48.810;9.120;2023-09-19T13:38:39;23.00;54.60
210;DHT22;90;48.810;9.120;2023-09-19T13:41:09;23.30;53.10
210;DHT22;90;48.810;9.120;2023-09-19T13:43:36;23.20;53.20
210;DHT22;90;48.810;9.120;2023-09-19T13:46:04;23.40;53.80
210;DHT22;90;48.810;9.120;2023-09-19T13:48:33;23.60;53.40
210;DHT22;90;48.810;9.120;2023-09-19T13:51:01;23.70;52.60
210;DHT22;90;48.810;9.120;2023-09-19T13:53:29;23.90;52.20
210;DHT22;90;48.810;9.120;2023-09-19T13:55:55;24.00;51.40
210;DHT22;90;48.810;9.120;2023-09-19T13:58:24;24.10;51.70
210;DHT22;90;48.810;9.120;2023-09-19T14:00:52;23.90;51.80
210;DHT22;90;48.810;9.120;2023-09-19T14:03:20;24.00;52.60
210;DHT22;90;48.810;9.120;2023-09-19T14:05:47;24.10;52.10
210;DHT22;90;48.810;9.120;2023-09-19T14:08:17;24.30;51.20
210;DHT22;90;48.810;9.120;2023-09-19T14:10:43;24.50;52.40
210;DHT22;90;48.810;9.120;2023-09-19T14:13:11;24.70;51.50
210;DHT22;90;48.810;9.120;2023-09-19T14:15:40;24.90;49.20
210;DHT22;90;48.810;9.120;2023-09-19T14:18:08;24.90;49.30
210;DHT22;90;48.810;9.120;2023-09-19T14:20:38;24.90;49.10
210;DHT22;90;48.810;9.120;2023-09-19T14:23:06;24.80;49.60
210;DHT22;90;48.810;9.120;2023-09-19T14:25:34;24.70;49.00
210;DHT22;90;48.810;9.120;2023-09-19T14:28:01;24.70;48.90
210;DHT22;90;48.810;9.120;2023-09-19T14:30:28;24.60;49.30
210;DHT22;90;48.810;9.120;2023-09-19T14:32:56;24.40;49.80
210;DHT22;90;48.810;9.120;2023-09-19T14:35:24;24.30;50.20
210;DHT22;90;48.810;9.120;2023-09-19T14:37:50;24.20;50.20
210;DHT22;90;48.810;9.120;2023-09-19T14:42:45;23.90;51.20
210;DHT22;90;48.810;9.120;2023-09-19T14:47:42;24.10;50.80
210;DHT22;90;48.810;9.120;2023-09-19T14:50:10;24.30;50.20
210;DHT22;90;48.810;9.120;2023-09-19T14:52:38;24.50;49.30
210;DHT22;90;48.810;9.120;2023-09-19T14:55:06;24.80;49.30
210;DHT22;90;48.810;9.120;2023-09-19T14:57:34;24.80;48.30
210;DHT22;90;48.810;9.120;2023-09-19T15:00:06;24.90;48.30
210;DHT22;90;48.810;9.120;2023-09-19T15:02:37;24.60;48.20
210;DHT22;90;48.810;9.120;2023-09-19T15:05:06;24.70;48.20
210;DHT22;90;48.810;9.120;2023-09-19T15:07:35;24.40;47.20
210;DHT22;90;48.810;9.120;2023-09-19T15:10:04;24.20;46.60
210;DHT22;90;48.810;9.120;2023-09-19T15:12:32;23.80;47.90
210;DHT22;90;48.810;9.120;2023-09-19T15:17:28;23.80;48.50
210;DHT22;90;48.810;9.120;2023-09-19T15:19:58;23.90;48.30
210;DHT22;90;48.810;9.120;2023-09-19T15:22:27;23.90;48.30
210;DHT22;90;48.810;9.120;2023-09-19T15:24:57;23.70;48.00
210;DHT22;90;48.810;9.120;2023-09-19T15:27:27;23.60;48.90
210;DHT22;90;48.810;9.120;2023-09-19T15:29:59;23.60;49.40
210;DHT22;90;48.810;9.120;2023-09-19T15:32:30;23.70;49.20
210;DHT22;90;48.810;9.120;2023-09-19T15:39:52;23.90;48.70
210;DHT22;90;48.810;9.120;2023-09-19T15:42:21;24.10;48.90
210;DHT22;90;48.810;9.120;2023-09-19T15:44:48;24.00;49.40
210;DHT22;90;48.810;9.120;2023-09-19T15:47:16;23.90;49.40
210;DHT22;90;48.810;9.120;2023-09-19T15:49:45;23.70;49.30
210;DHT22;90;48.810;9.120;2023-09-19T15:52:12;23.60;49.90
210;DHT22;90;48.810;9.120;2023-09-19T15:54:38;23.40;50.60
210;DHT22;90;48.810;9.120;2023-09-19T15:57:10;23.50;50.70
210;DHT22;90;48.810;9.120;2023-09-19T15:59:39;23.70;50.40
210;DHT22;90;48.810;9.120;2023-09-19T16:02:06;23.70;50.60
210;DHT22;90;48.810;9.120;2023-09-19T16:04:33;23.60;51.50
210;DHT22;90;48.810;9.120;2023-09-19T16:07:00;23.50;51.80
210;DHT22;90;48.810;9.120;2023-09-19T16:09:28;23.50;51.80
210;DHT22;90;48.810;9.120;2023-09-19T16:11:54;23.50;52.00
210;DHT22;90;48.810;9.120;2023-09-19T16:14:21;23.40;51.20
210;DHT22;90;48.810;9.120;2023-09-19T16:16:50;23.40;51.40
210;DHT22;90;48.810;9.120;2023-09-19T16:19:16;23.30;51.90
210;DHT22;90;48.810;9.120;2023-09-19T16:21:44;23.20;52.10
210;DHT22;90;48.810;9.120;2023-09-19T16:24:11;23.10;52.30
210;DHT22;90;48.810;9.120;2023-09-19T16:26:37;23.10;52.50
210;DHT22;90;48.810;9.120;2023-09-19T16:29:04;23.00;53.00
210;DHT22;90;48.810;9.120;2023-09-19T16:31:31;23.00;53.60
210;DHT22;90;48.810;9.120;2023-09-19T16:34:00;23.00;54.20
210;DHT22;90;48.810;9.120;2023-09-19T16:36:28;23.00;54.20
210;DHT22;90;48.810;9.120;2023-09-19T16:38:54;23.00;54.00
210;DHT22;90;48.810;9.120;2023-09-19T16:41:22;23.00;53.40
210;DHT22;90;48.810;9.120;2023-09-19T16:43:49;22.80;54.00
210;DHT22;90;48.810;9.120;2023-09-19T16:46:16;22.80;54.00
210;DHT22;90;48.810;9.120;2023-09-19T16:48:43;22.70;54.40
210;DHT22;90;48.810;9.120;2023-09-19T16:51:14;22.70;54.50
210;DHT22;90;48.810;9.120;2023-09-19T16:53:42;22.60;55.10
210;DHT22;90;48.810;9.120;2023-09-19T16:56:12;22.50;54.90
210;DHT22;90;48.810;9.120;2023-09-19T16:58:41;22.60;55.10
210;DHT22;90;48.810;9.120;2023-09-19T17:01:09;22.60;55.10
210;DHT22;90;48.810;9.120;2023-09-19T17:03:36;22.60;55.40
210;DHT22;90;48.810;9.120;2023-09-19T17:06:05;22.50;55.80
210;DHT22;90;48.810;9.120;2023-09-19T17:08:34;22.50;56.10
210;DHT22;90;48.810;9.120;2023-09-19T17:11:02;22.50;56.40
210;DHT22;90;48.810;9.120;2023-09-19T17:13:33;22.30;57.50
210;DHT22;90;48.810;9.120;2023-09-19T17:16:02;22.30;57.50
210;DHT22;90;48.810;9.120;2023-09-19T17:18:30;22.20;58.10
210;DHT22;90;48.810;9.120;2023-09-19T17:20:58;22.10;58.70
210;DHT22;90;48.810;9.120;2023-09-19T17:23:26;22.10;58.90